Time;durP1;ratioP1;P1;durP2;ratioP2;P2;SDS_P1;SDS_P2;PMS_P1;PMS_P2;Temp;Humidity;BMP_temperature;BMP_pressure;BME280_temperature;BME280_humidity;BME280_pressure;Samples;Min_cycle;Max_cycle;Signal;HPM_P1;HPM_P2
2023/07/26 00:00:40;;;;;;;13.07;6.80;;;;;;;;;;5114975;28;20221;-79
2023/07/26 00:03:07;;;;;;;11.30;7.33;;;;;;;;;;5115345;28;20280;-79
2023/07/26 00:05:35;;;;;;;8.30;5.57;;;;;;;;;;5115534;28;20221;-79
2023/07/26 00:08:02;;;;;;;7.57;5.40;;;;;;;;;;5115124;28;20597;-78
2023/07/26 00:10:29;;;;;;;11.57;5.20;;;;;;;;;;5115113;28;20253;-79
2023/07/26 00:12:56;;;;;;;13.23;5.57;;;;;;;;;;5115038;28;20284;-79
2023/07/26 00:15:23;;;;;;;11.40;5.83;;;;;;;;;;5115046;28;20190;-79
2023/07/26 00:17:52;;;;;;;8.97;6.23;;;;;;;;;;5115126;28;20288;-79
2023/07/26 00:20:19;;;;;;;8.23;5.93;;;;;;;;;;5115002;28;20217;-79
2023/07/26 00:22:46;;;;;;;14.70;6.90;;;;;;;;;;5114708;28;20277;-79
2023/07/26 00:25:13;;;;;;;10.17;6.40;;;;;;;;;;5115421;28;20217;-79
2023/07/26 00:27:40;;;;;;;8.10;6.10;;;;;;;;;;5114915;28;20198;-78
2023/07/26 00:30:08;;;;;;;11.03;6.23;;;;;;;;;;5114157;28;20323;-79
2023/07/26 00:32:35;;;;;;;7.97;6.17;;;;;;;;;;5114980;28;20190;-79
2023/07/26 00:35:04;;;;;;;9.43;5.97;;;;;;;;;;5113881;28;20312;-80
2023/07/26 00:37:31;;;;;;;9.60;5.77;;;;;;;;;;5114179;28;20284;-80
2023/07/26 00:39:59;;;;;;;8.00;5.40;;;;;;;;;;5114768;28;20202;-79
2023/07/26 00:42:26;;;;;;;9.30;5.70;;;;;;;;;;5114790;28;20200;-79
2023/07/26 00:44:53;;;;;;;8.43;6.10;;;;;;;;;;5114149;28;20285;-78
2023/07/26 00:47:20;;;;;;;9.50;5.97;;;;;;;;;;5114201;28;20678;-79
2023/07/26 00:49:47;;;;;;;12.17;6.17;;;;;;;;;;5114803;28;20328;-79
2023/07/26 00:52:16;;;;;;;10.87;6.07;;;;;;;;;;5114207;28;20635;-79
2023/07/26 00:54:43;;;;;;;8.93;6.07;;;;;;;;;;5114301;28;20225;-79
2023/07/26 00:57:10;;;;;;;9.10;6.57;;;;;;;;;;5114403;28;20297;-79
2023/07/26 00:59:38;;;;;;;13.90;7.33;;;;;;;;;;5113892;28;20293;-79
2023/07/26 01:02:05;;;;;;;10.67;7.43;;;;;;;;;;5114412;28;20194;-78
2023/07/26 01:04:32;;;;;;;11.40;6.70;;;;;;;;;;5114306;28;20281;-79
2023/07/26 01:07:07;;;;;;;11.80;6.07;;;;;;;;;;5113770;28;20194;-80
2023/07/26 01:09:39;;;;;;;10.90;7.10;;;;;;;;;;5113989;28;20224;-78
2023/07/26 01:12:08;;;;;;;8.80;6.27;;;;;;;;;;5113651;28;20248;-79
2023/07/26 01:14:38;;;;;;;11.23;6.40;;;;;;;;;;5113494;28;20746;-79
2023/07/26 01:17:06;;;;;;;9.27;6.97;;;;;;;;;;5114011;28;20229;-79
2023/07/26 01:19:33;;;;;;;12.07;7.30;;;;;;;;;;5113940;28;20208;-78
2023/07/26 01:22:01;;;;;;;13.60;6.97;;;;;;;;;;5113948;28;20277;-78
2023/07/26 01:24:29;;;;;;;12.47;6.77;;;;;;;;;;5113856;28;20819;-78
2023/07/26 01:26:56;;;;;;;10.43;6.90;;;;;;;;;;5113936;28;20271;-78
2023/07/26 01:29:23;;;;;;;12.97;7.00;;;;;;;;;;5112939;28;20282;-78
2023/07/26 01:31:50;;;;;;;9.23;6.67;;;;;;;;;;5113764;28;20293;-79
2023/07/26 01:34:17;;;;;;;13.20;7.50;;;;;;;;;;5113404;28;20640;-79
2023/07/26 01:36:45;;;;;;;13.53;7.33;;;;;;;;;;5113497;28;20277;-78
2023/07/26 01:39:14;;;;;;;12.10;7.83;;;;;;;;;;5113471;28;20228;-78
2023/07/26 01:41:41;;;;;;;10.53;7.60;;;;;;;;;;5112762;28;20237;-79
2023/07/26 01:44:09;;;;;;;11.30;7.10;;;;;;;;;;5113639;28;20662;-79
2023/07/26 01:46:36;;;;;;;14.17;7.37;;;;;;;;;;5113339;28;20284;-78
2023/07/26 01:49:03;;;;;;;11.70;7.63;;;;;;;;;;5113308;28;20289;-79
2023/07/26 01:51:30;;;;;;;12.37;7.60;;;;;;;;;;5112913;28;20577;-78
2023/07/26 01:53:58;;;;;;;13.73;7.63;;;;;;;;;;5112612;28;20681;-78
2023/07/26 01:56:26;;;;;;;12.10;7.80;;;;;;;;;;5113028;28;20221;-77
2023/07/26 01:58:53;;;;;;;14.10;7.07;;;;;;;;;;5113507;28;20292;-78
2023/07/26 02:01:21;;;;;;;11.63;7.67;;;;;;;;;;5112823;28;20292;-79
2023/07/26 02:03:48;;;;;;;13.77;8.10;;;;;;;;;;5112900;28;20233;-79
2023/07/26 02:06:15;;;;;;;16.03;8.17;;;;;;;;;;5112770;28;20233;-78
2023/07/26 02:08:42;;;;;;;12.20;7.47;;;;;;;;;;5112864;28;20196;-79
2023/07/26 02:11:10;;;;;;;10.87;8.27;;;;;;;;;;5112653;28;20237;-78
2023/07/26 02:13:39;;;;;;;11.20;7.40;;;;;;;;;;5112758;28;21256;-77
2023/07/26 02:16:07;;;;;;;14.93;8.10;;;;;;;;;;5112376;28;20734;-79
2023/07/26 02:18:34;;;;;;;11.00;8.10;;;;;;;;;;5112557;28;20251;-79
2023/07/26 02:21:01;;;;;;;11.43;8.40;;;;;;;;;;5112517;28;20202;-78
2023/07/26 02:23:29;;;;;;;12.00;7.73;;;;;;;;;;5112607;28;20249;-78
2023/07/26 02:25:56;;;;;;;11.37;8.10;;;;;;;;;;5112363;28;20221;-78
2023/07/26 02:28:24;;;;;;;11.87;7.40;;;;;;;;;;5112517;28;20194;-79
2023/07/26 02:30:52;;;;;;;12.17;7.87;;;;;;;;;;5112257;28;20320;-78
2023/07/26 02:33:19;;;;;;;10.27;7.60;;;;;;;;;;5112337;28;20280;-78
2023/07/26 02:35:47;;;;;;;9.23;7.13;;;;;;;;;;5112527;28;20217;-78
2023/07/26 02:38:14;;;;;;;10.70;7.53;;;;;;;;;;5112651;28;20666;-78
2023/07/26 02:40:41;;;;;;;11.07;7.57;;;;;;;;;;5111997;28;20217;-78
2023/07/26 02:43:08;;;;;;;11.73;7.50;;;;;;;;;;5112394;28;20289;-77
2023/07/26 02:45:35;;;;;;;10.93;8.10;;;;;;;;;;5111990;28;20212;-78
2023/07/26 02:48:04;;;;;;;13.67;7.93;;;;;;;;;;5111974;28;20247;-78
2023/07/26 02:50:31;;;;;;;9.70;7.33;;;;;;;;;;5098114;28;20634;-78
2023/07/26 02:52:58;;;;;;;14.70;7.50;;;;;;;;;;5110479;28;20713;-78
2023/07/26 02:55:26;;;;;;;7.87;6.80;;;;;;;;;;5112246;28;20206;-78
2023/07/26 02:57:53;;;;;;;13.10;7.47;;;;;;;;;;5111500;28;20276;-79
2023/07/26 03:00:20;;;;;;;9.97;7.07;;;;;;;;;;5111871;28;20284;-78
2023/07/26 03:02:47;;;;;;;13.83;7.60;;;;;;;;;;5112077;28;20276;-78
2023/07/26 03:05:16;;;;;;;9.07;6.83;;;;;;;;;;5091847;28;20229;-78
2023/07/26 03:07:43;;;;;;;13.73;8.10;;;;;;;;;;5092086;28;20629;-78
2023/07/26 03:10:11;;;;;;;10.77;7.50;;;;;;;;;;5090970;28;20250;-78
2023/07/26 03:12:38;;;;;;;8.73;6.63;;;;;;;;;;5091624;28;20380;-78
2023/07/26 03:15:05;;;;;;;8.37;6.30;;;;;;;;;;5091300;28;20293;-78
2023/07/26 03:17:33;;;;;;;10.60;6.30;;;;;;;;;;5110470;28;20200;-78
2023/07/26 03:20:00;;;;;;;10.43;6.50;;;;;;;;;;5111778;28;20281;-77
2023/07/26 03:22:29;;;;;;;8.27;6.67;;;;;;;;;;5111794;28;20194;-78
2023/07/26 03:24:56;;;;;;;10.37;7.40;;;;;;;;;;5111837;28;20296;-78
2023/07/26 03:27:24;;;;;;;39.17;9.80;;;;;;;;;;5111591;28;20285;-77
2023/07/26 03:29:51;;;;;;;16.83;10.10;;;;;;;;;;5111968;28;20280;-78
2023/07/26 03:32:18;;;;;;;13.50;9.87;;;;;;;;;;5111790;28;20292;-78
2023/07/26 03:34:45;;;;;;;14.33;10.13;;;;;;;;;;5111506;28;20288;-78
2023/07/26 03:37:12;;;;;;;13.43;9.33;;;;;;;;;;5111585;28;20638;-79
2023/07/26 03:39:41;;;;;;;12.20;8.90;;;;;;;;;;5111277;28;20221;-78
2023/07/26 03:42:09;;;;;;;13.93;8.80;;;;;;;;;;5111981;28;20300;-78
2023/07/26 03:44:36;;;;;;;10.93;7.93;;;;;;;;;;5111447;28;20794;-79
2023/07/26 03:47:03;;;;;;;10.70;7.70;;;;;;;;;;5111424;28;20301;-78
2023/07/26 03:49:30;;;;;;;7.43;6.30;;;;;;;;;;5111472;28;20225;-78
2023/07/26 03:51:57;;;;;;;11.13;6.43;;;;;;;;;;5111353;28;20316;-78
2023/07/26 03:54:24;;;;;;;8.30;6.57;;;;;;;;;;5111058;28;20249;-78
2023/07/26 03:56:53;;;;;;;12.20;6.53;;;;;;;;;;5111504;28;20289;-78
2023/07/26 03:59:20;;;;;;;18.97;7.70;;;;;;;;;;5111089;28;20229;-78
2023/07/26 04:01:47;;;;;;;12.43;7.20;;;;;;;;;;5111322;28;20314;-78
2023/07/26 04:04:14;;;;;;;10.57;7.87;;;;;;;;;;5111164;28;20292;-78
2023/07/26 04:06:41;;;;;;;13.70;8.17;;;;;;;;;;5111019;28;20201;-78
2023/07/26 04:09:09;;;;;;;15.97;8.40;;;;;;;;;;5113753;28;20285;-78
2023/07/26 04:11:36;;;;;;;22.77;8.63;;;;;;;;;;5114948;28;20225;-78
2023/07/26 04:14:04;;;;;;;29.87;9.60;;;;;;;;;;5115002;28;20193;-78
2023/07/26 04:16:31;;;;;;;31.73;9.63;;;;;;;;;;5104673;28;20202;-78
2023/07/26 04:18:59;;;;;;;25.93;9.20;;;;;;;;;;5094570;28;20289;-77
2023/07/26 04:21:26;;;;;;;20.07;9.50;;;;;;;;;;5094022;28;20286;-78
2023/07/26 04:23:53;;;;;;;17.70;10.30;;;;;;;;;;5094767;28;20273;-78
2023/07/26 04:26:20;;;;;;;22.73;9.60;;;;;;;;;;5094517;28;20255;-78
2023/07/26 04:28:47;;;;;;;14.03;9.23;;;;;;;;;;5094344;28;20561;-77
2023/07/26 04:31:16;;;;;;;17.80;9.50;;;;;;;;;;5094352;28;20313;-78
2023/07/26 04:33:43;;;;;;;24.40;9.80;;;;;;;;;;5094323;28;20225;-77
2023/07/26 04:36:11;;;;;;;18.70;9.50;;;;;;;;;;5094008;28;20233;-78
2023/07/26 04:38:39;;;;;;;18.87;9.30;;;;;;;;;;5094085;28;20202;-78
2023/07/26 04:41:06;;;;;;;13.50;9.07;;;;;;;;;;5094168;28;20285;-78
2023/07/26 04:43:33;;;;;;;11.17;9.03;;;;;;;;;;5094191;28;20289;-79
2023/07/26 04:46:00;;;;;;;21.57;9.53;;;;;;;;;;5094572;28;20289;-78
2023/07/26 04:48:29;;;;;;;14.70;9.50;;;;;;;;;;5093971;28;20251;-78
2023/07/26 04:50:56;;;;;;;17.13;9.73;;;;;;;;;;5093347;28;20269;-79
2023/07/26 04:53:23;;;;;;;11.80;8.93;;;;;;;;;;5093878;28;20313;-78
2023/07/26 04:55:51;;;;;;;18.37;10.30;;;;;;;;;;5093863;28;20239;-78
2023/07/26 04:58:18;;;;;;;14.70;8.93;;;;;;;;;;5094061;28;20249;-79
2023/07/26 05:00:46;;;;;;;11.13;8.90;;;;;;;;;;5093579;28;20297;-79
2023/07/26 05:03:13;;;;;;;19.13;9.60;;;;;;;;;;5093717;28;20234;-78
2023/07/26 05:05:42;;;;;;;17.40;9.37;;;;;;;;;;5093126;28;20754;-78
2023/07/26 05:08:09;;;;;;;11.13;9.13;;;;;;;;;;5093763;28;20286;-78
2023/07/26 05:10:36;;;;;;;14.60;9.90;;;;;;;;;;5093675;28;20277;-78
2023/07/26 05:13:03;;;;;;;11.63;8.97;;;;;;;;;;5093675;28;20277;-78
2023/07/26 05:15:31;;;;;;;13.57;9.67;;;;;;;;;;5095377;28;20201;-78
2023/07/26 05:17:58;;;;;;;18.30;9.33;;;;;;;;;;5114375;28;20232;-78
2023/07/26 05:20:25;;;;;;;16.43;9.07;;;;;;;;;;5113266;28;20278;-79
2023/07/26 05:22:54;;;;;;;14.60;9.47;;;;;;;;;;5113383;28;20293;-79
2023/07/26 05:25:21;;;;;;;11.37;8.70;;;;;;;;;;5113758;28;20297;-78
2023/07/26 05:27:48;;;;;;;11.63;9.47;;;;;;;;;;5114047;28;20196;-78
2023/07/26 05:30:17;;;;;;;9.90;8.90;;;;;;;;;;5113621;28;20288;-78
2023/07/26 05:32:44;;;;;;;11.67;9.27;;;;;;;;;;5113609;28;20226;-79
2023/07/26 05:35:12;;;;;;;9.70;8.70;;;;;;;;;;5113278;28;20281;-79
2023/07/26 05:37:39;;;;;;;10.90;8.97;;;;;;;;;;5113520;28;20201;-79
2023/07/26 05:40:10;;;;;;;11.50;9.23;;;;;;;;;;5106162;28;20321;-78
2023/07/26 05:42:37;;;;;;;10.00;8.80;;;;;;;;;;5110152;28;20201;-80
2023/07/26 05:45:05;;;;;;;11.97;8.83;;;;;;;;;;5113754;28;20205;-78
2023/07/26 05:47:33;;;;;;;12.07;8.63;;;;;;;;;;5113473;28;20285;-79
2023/07/26 05:50:00;;;;;;;11.63;9.27;;;;;;;;;;5091163;28;20202;-79
2023/07/26 05:52:27;;;;;;;10.77;8.87;;;;;;;;;;5086986;28;20237;-78
2023/07/26 05:54:55;;;;;;;13.77;8.43;;;;;;;;;;5095722;28;20278;-78
2023/07/26 05:57:23;;;;;;;11.70;8.03;;;;;;;;;;5108868;28;20190;-77
2023/07/26 05:59:51;;;;;;;12.77;8.33;;;;;;;;;;5112881;28;20293;-78
2023/07/26 06:02:18;;;;;;;13.30;8.70;;;;;;;;;;5112795;28;20208;-77
2023/07/26 06:04:45;;;;;;;11.40;8.23;;;;;;;;;;5112440;28;20194;-77
2023/07/26 06:07:12;;;;;;;11.53;7.90;;;;;;;;;;5112829;28;20217;-77
2023/07/26 06:09:40;;;;;;;10.73;8.33;;;;;;;;;;5112137;28;20293;-78
2023/07/26 06:12:07;;;;;;;10.70;8.03;;;;;;;;;;5112321;28;20403;-78
2023/07/26 06:14:36;;;;;;;13.10;8.60;;;;;;;;;;5094356;28;20251;-77
2023/07/26 06:17:03;;;;;;;11.03;7.70;;;;;;;;;;5106601;28;20202;-78
2023/07/26 06:19:30;;;;;;;15.13;8.30;;;;;;;;;;5111997;28;20276;-78
2023/07/26 06:21:58;;;;;;;12.37;7.50;;;;;;;;;;5112124;28;20255;-78
2023/07/26 06:24:25;;;;;;;9.87;7.00;;;;;;;;;;5112184;28;20280;-79
2023/07/26 06:26:52;;;;;;;10.70;6.93;;;;;;;;;;5112500;28;20281;-77
2023/07/26 06:29:19;;;;;;;12.23;7.37;;;;;;;;;;5112136;28;20762;-79
2023/07/26 06:31:48;;;;;;;13.77;7.43;;;;;;;;;;5110734;28;20320;-77
2023/07/26 06:34:15;;;;;;;9.87;7.43;;;;;;;;;;5111797;28;20201;-78
2023/07/26 06:36:43;;;;;;;10.23;7.17;;;;;;;;;;5111836;28;20219;-76
2023/07/26 06:39:10;;;;;;;11.73;6.90;;;;;;;;;;5111989;28;20753;-78
2023/07/26 06:41:37;;;;;;;9.23;6.80;;;;;;;;;;5111851;28;20225;-77
2023/07/26 06:44:04;;;;;;;7.70;6.47;;;;;;;;;;5111907;28;20194;-77
2023/07/26 06:46:33;;;;;;;9.97;6.70;;;;;;;;;;5111464;28;20608;-78
2023/07/26 06:49:01;;;;;;;8.03;5.97;;;;;;;;;;5110991;28;20690;-77
2023/07/26 06:51:28;;;;;;;9.30;6.90;;;;;;;;;;5111222;28;20304;-78
2023/07/26 06:53:56;;;;;;;11.37;6.60;;;;;;;;;;5111218;28;20225;-77
2023/07/26 06:56:23;;;;;;;10.57;5.70;;;;;;;;;;5111257;28;20289;-77
2023/07/26 06:58:50;;;;;;;10.93;6.50;;;;;;;;;;5111409;28;20285;-77
2023/07/26 07:01:18;;;;;;;10.37;6.33;;;;;;;;;;5111323;28;20273;-77
2023/07/26 07:03:45;;;;;;;9.40;6.03;;;;;;;;;;5111480;28;20284;-77
2023/07/26 07:06:15;;;;;;;8.50;5.87;;;;;;;;;;5111483;28;20193;-77
2023/07/26 07:08:43;;;;;;;6.43;5.10;;;;;;;;;;5111858;28;20194;-78
2023/07/26 07:11:10;;;;;;;9.40;5.63;;;;;;;;;;5111568;28;20285;-77
2023/07/26 07:13:37;;;;;;;9.10;5.13;;;;;;;;;;5111633;28;20193;-78
2023/07/26 07:16:04;;;;;;;9.60;5.50;;;;;;;;;;5110947;28;20200;-77
2023/07/26 07:18:32;;;;;;;8.80;5.13;;;;;;;;;;5111965;28;20284;-77
2023/07/26 07:21:00;;;;;;;8.63;4.47;;;;;;;;;;5111119;28;20689;-77
2023/07/26 07:23:29;;;;;;;8.80;4.87;;;;;;;;;;5110562;28;20830;-75
2023/07/26 07:25:57;;;;;;;8.07;5.10;;;;;;;;;;5111011;28;20204;-76
2023/07/26 07:28:24;;;;;;;10.07;4.82;;;;;;;;;;5111085;28;21016;-75
2023/07/26 07:30:51;;;;;;;7.10;4.40;;;;;;;;;;5111373;28;20190;-76
2023/07/26 07:33:18;;;;;;;7.45;4.43;;;;;;;;;;5111438;28;20320;-77
2023/07/26 07:35:45;;;;;;;8.07;4.18;;;;;;;;;;5111361;28;20281;-77
2023/07/26 07:38:12;;;;;;;6.13;4.20;;;;;;;;;;5111236;28;20649;-76
2023/07/26 07:40:41;;;;;;;7.25;4.00;;;;;;;;;;5111475;28;20568;-77
2023/07/26 07:43:08;;;;;;;5.80;3.38;;;;;;;;;;5111901;28;20281;-77
2023/07/26 07:45:40;;;;;;;6.18;3.50;;;;;;;;;;5115614;28;20281;-77
2023/07/26 07:48:08;;;;;;;7.72;3.35;;;;;;;;;;5115630;28;20193;-77
2023/07/26 07:50:35;;;;;;;5.90;2.88;;;;;;;;;;5115166;28;20285;-78
2023/07/26 07:53:03;;;;;;;6.90;3.20;;;;;;;;;;5114470;28;20731;-78
2023/07/26 07:55:31;;;;;;;5.97;2.97;;;;;;;;;;5114661;28;20552;-78
2023/07/26 07:58:00;;;;;;;4.65;3.30;;;;;;;;;;5115108;28;20647;-77
2023/07/26 08:00:27;;;;;;;5.65;3.40;;;;;;;;;;5113656;28;20690;-77
2023/07/26 08:02:54;;;;;;;5.30;3.33;;;;;;;;;;5114831;28;20198;-77
2023/07/26 08:05:22;;;;;;;4.53;2.67;;;;;;;;;;5114692;27;20233;-78
2023/07/26 08:07:52;;;;;;;6.40;2.78;;;;;;;;;;5114841;28;20240;-77
2023/07/26 08:10:20;;;;;;;4.82;2.53;;;;;;;;;;5110715;28;20552;-78
2023/07/26 08:12:47;;;;;;;5.05;2.40;;;;;;;;;;5094712;28;20657;-78
2023/07/26 08:15:15;;;;;;;5.82;2.63;;;;;;;;;;5094151;28;20248;-77
2023/07/26 08:17:43;;;;;;;4.75;2.65;;;;;;;;;;5093691;28;20291;-77
2023/07/26 08:20:11;;;;;;;5.63;2.60;;;;;;;;;;5094173;28;20234;-77
2023/07/26 08:22:38;;;;;;;6.15;2.60;;;;;;;;;;5093999;28;20191;-77
2023/07/26 08:25:07;;;;;;;3.38;2.90;;;;;;;;;;5094459;28;20194;-78
2023/07/26 08:27:34;;;;;;;6.05;3.05;;;;;;;;;;5094400;28;20285;-78
2023/07/26 08:30:01;;;;;;;6.85;3.20;;;;;;;;;;5093298;28;20237;-77
2023/07/26 08:32:30;;;;;;;5.25;2.95;;;;;;;;;;5094311;28;20229;-76
2023/07/26 08:34:57;;;;;;;5.53;3.60;;;;;;;;;;5093833;28;20266;-76
2023/07/26 08:37:24;;;;;;;5.00;2.90;;;;;;;;;;5093772;28;20742;-77
2023/07/26 08:39:51;;;;;;;7.90;3.50;;;;;;;;;;5094397;28;20205;-77
2023/07/26 08:42:18;;;;;;;5.85;2.65;;;;;;;;;;5093539;28;20281;-77
2023/07/26 08:44:46;;;;;;;6.38;2.83;;;;;;;;;;5094113;28;20198;-77
2023/07/26 08:47:14;;;;;;;5.40;2.92;;;;;;;;;;5098791;28;20229;-77
2023/07/26 08:49:43;;;;;;;6.82;2.70;;;;;;;;;;5114147;28;20284;-78
2023/07/26 08:52:10;;;;;;;7.05;2.80;;;;;;;;;;5113456;28;20243;-79
2023/07/26 08:54:38;;;;;;;6.10;2.30;;;;;;;;;;5113447;28;20288;-79
2023/07/26 08:57:05;;;;;;;9.48;2.83;;;;;;;;;;5113697;28;20277;-78
2023/07/26 08:59:33;;;;;;;6.93;2.20;;;;;;;;;;5114047;28;20687;-78
2023/07/26 09:02:00;;;;;;;6.60;2.78;;;;;;;;;;5114127;28;20851;-78
2023/07/26 09:04:28;;;;;;;7.57;2.55;;;;;;;;;;5113401;28;20682;-80
2023/07/26 09:06:56;;;;;;;5.03;2.20;;;;;;;;;;5113804;28;20233;-80
2023/07/26 09:09:24;;;;;;;6.90;2.30;;;;;;;;;;5100642;28;20198;-80
2023/07/26 09:11:51;;;;;;;6.13;2.60;;;;;;;;;;5092840;28;20281;-80
2023/07/26 09:14:18;;;;;;;4.80;2.42;;;;;;;;;;5093648;28;20214;-80
2023/07/26 09:16:46;;;;;;;6.13;2.47;;;;;;;;;;5105690;28;20288;-79
2023/07/26 09:19:13;;;;;;;5.40;2.22;;;;;;;;;;5113656;28;20190;-80
2023/07/26 09:21:40;;;;;;;4.55;2.75;;;;;;;;;;5113394;28;20298;-79
2023/07/26 09:24:10;;;;;;;6.95;2.50;;;;;;;;;;5113384;28;20300;-80
2023/07/26 09:26:39;;;;;;;4.95;2.25;;;;;;;;;;5112978;28;20208;-79
2023/07/26 09:29:10;;;;;;;4.78;2.25;;;;;;;;;;5113670;28;20209;-80
2023/07/26 09:31:38;;;;;;;6.72;2.20;;;;;;;;;;5113256;28;20198;-79
2023/07/26 09:34:07;;;;;;;4.28;2.20;;;;;;;;;;5112946;28;20222;-79
2023/07/26 09:36:41;;;;;;;5.22;2.28;;;;;;;;;;5113751;28;20285;-79
2023/07/26 09:39:10;;;;;;;5.60;2.00;;;;;;;;;;5113239;28;20296;-81
2023/07/26 09:41:37;;;;;;;5.63;2.13;;;;;;;;;;5112580;28;20276;-81
2023/07/26 09:44:05;;;;;;;4.25;2.20;;;;;;;;;;5113351;28;20210;-79
2023/07/26 09:46:33;;;;;;;4.82;2.25;;;;;;;;;;5112910;28;20276;-80
2023/07/26 09:49:02;;;;;;;5.00;2.20;;;;;;;;;;5112642;28;20288;-80
2023/07/26 09:51:31;;;;;;;6.57;2.28;;;;;;;;;;5113166;28;20194;-80
2023/07/26 09:53:58;;;;;;;4.22;2.00;;;;;;;;;;5112260;28;20241;-80
2023/07/26 09:56:33;;;;;;;3.40;1.70;;;;;;;;;;5112427;28;20404;-80
2023/07/26 09:59:01;;;;;;;5.75;2.10;;;;;;;;;;5112886;28;20196;-80
2023/07/26 10:01:29;;;;;;;5.18;1.83;;;;;;;;;;5112621;28;20193;-81
2023/07/26 10:03:57;;;;;;;4.75;1.90;;;;;;;;;;5112719;28;20251;-79
2023/07/26 10:06:25;;;;;;;5.63;2.42;;;;;;;;;;5112236;28;20280;-80
2023/07/26 10:08:52;;;;;;;5.75;1.80;;;;;;;;;;5112655;28;20273;-80
2023/07/26 10:11:20;;;;;;;3.28;1.65;;;;;;;;;;5111967;28;20200;-82
2023/07/26 10:13:50;;;;;;;2.67;1.63;;;;;;;;;;5112500;28;20264;-80
2023/07/26 10:16:17;;;;;;;6.07;2.75;;;;;;;;;;5112428;28;20292;-80
2023/07/26 10:18:45;;;;;;;6.20;2.63;;;;;;;;;;5112159;28;20229;-79
2023/07/26 10:21:13;;;;;;;5.72;1.80;;;;;;;;;;5112167;28;20194;-79
2023/07/26 10:23:43;;;;;;;3.35;1.80;;;;;;;;;;5112148;28;20225;-80
2023/07/26 10:26:11;;;;;;;4.53;1.80;;;;;;;;;;5096721;28;20648;-80
2023/07/26 10:28:38;;;;;;;4.70;1.75;;;;;;;;;;5091903;28;20198;-81
2023/07/26 10:31:07;;;;;;;5.28;2.00;;;;;;;;;;5092034;28;20218;-79
2023/07/26 10:33:34;;;;;;;7.60;2.15;;;;;;;;;;5091823;28;20317;-81
2023/07/26 10:36:07;;;;;;;6.97;1.92;;;;;;;;;;5091865;28;20202;-80
2023/07/26 10:38:39;;;;;;;6.10;2.05;;;;;;;;;;5091332;28;20198;-79
2023/07/26 10:41:21;;;;;;;4.78;2.15;;;;;;;;;;5091827;28;20233;-79
2023/07/26 10:43:50;;;;;;;4.88;2.20;;;;;;;;;;5091269;28;20223;-79
2023/07/26 10:46:20;;;;;;;4.85;2.10;;;;;;;;;;5093445;28;20746;-80
2023/07/26 10:48:48;;;;;;;4.57;2.10;;;;;;;;;;5111769;28;20246;-81
2023/07/26 10:51:31;;;;;;;2.03;1.60;;;;;;;;;;5110355;28;20292;-83
2023/07/26 10:53:58;;;;;;;4.22;1.83;;;;;;;;;;5110895;28;20241;-81
2023/07/26 10:56:26;;;;;;;4.07;1.50;;;;;;;;;;5111767;28;20277;-79
2023/07/26 10:58:57;;;;;;;3.58;2.08;;;;;;;;;;5111624;28;20220;-83
2023/07/26 11:01:32;;;;;;;4.03;1.60;;;;;;;;;;5111941;28;20252;-82
2023/07/26 11:04:00;;;;;;;4.53;2.00;;;;;;;;;;5111275;28;20193;-83
2023/07/26 11:06:48;;;;;;;4.43;2.25;;;;;;;;;;5111025;28;20652;-82
2023/07/26 11:09:20;;;;;;;6.25;1.90;;;;;;;;;;5111413;28;20197;-82
2023/07/26 11:11:57;;;;;;;4.78;1.80;;;;;;;;;;5111150;28;20284;-82
2023/07/26 11:14:25;;;;;;;4.35;2.00;;;;;;;;;;5111228;28;20286;-81
2023/07/26 11:16:53;;;;;;;5.15;1.80;;;;;;;;;;5110933;28;20670;-81
2023/07/26 11:19:21;;;;;;;5.72;2.00;;;;;;;;;;5110729;28;20254;-81
2023/07/26 11:21:48;;;;;;;5.30;2.08;;;;;;;;;;5108479;28;20646;-82
2023/07/26 11:24:15;;;;;;;3.85;1.92;;;;;;;;;;5109686;28;20361;-84
2023/07/26 11:26:45;;;;;;;3.90;1.92;;;;;;;;;;5105556;28;20186;-81
2023/07/26 11:29:12;;;;;;;4.60;2.05;;;;;;;;;;5100508;28;20247;-82
2023/07/26 11:31:39;;;;;;;7.13;2.40;;;;;;;;;;5111162;28;20197;-83
2023/07/26 11:34:18;;;;;;;4.43;1.90;;;;;;;;;;5109352;28;20221;-82
2023/07/26 11:36:46;;;;;;;4.20;2.22;;;;;;;;;;5107115;28;20198;-83
2023/07/26 11:39:20;;;;;;;4.90;2.10;;;;;;;;;;5108332;28;20190;-83
2023/07/26 11:41:47;;;;;;;6.80;2.55;;;;;;;;;;5110098;28;20204;-83
2023/07/26 11:44:15;;;;;;;4.25;2.28;;;;;;;;;;5110077;28;20240;-82
2023/07/26 11:46:43;;;;;;;3.95;2.33;;;;;;;;;;5110676;28;20282;-83
2023/07/26 11:49:11;;;;;;;5.10;2.40;;;;;;;;;;5111300;28;20647;-83
2023/07/26 11:51:40;;;;;;;4.75;2.20;;;;;;;;;;5110498;28;20202;-83
2023/07/26 11:54:13;;;;;;;9.02;2.17;;;;;;;;;;5110778;28;20287;-81
2023/07/26 11:56:41;;;;;;;6.28;2.80;;;;;;;;;;5110931;28;20577;-81
2023/07/26 11:59:09;;;;;;;6.53;2.55;;;;;;;;;;5106627;28;20633;-80
2023/07/26 12:01:36;;;;;;;5.15;2.30;;;;;;;;;;5093434;28;20286;-80
2023/07/26 12:04:10;;;;;;;4.25;2.35;;;;;;;;;;5111365;28;20202;-80
2023/07/26 12:06:37;;;;;;;5.15;2.38;;;;;;;;;;5110966;28;20654;-80
2023/07/26 12:09:09;;;;;;;5.13;2.20;;;;;;;;;;5110407;28;20197;-80
2023/07/26 12:11:37;;;;;;;5.75;2.42;;;;;;;;;;5098351;28;20202;-80
2023/07/26 12:14:04;;;;;;;5.05;2.72;;;;;;;;;;5104186;28;20313;-81
2023/07/26 12:16:32;;;;;;;3.72;2.00;;;;;;;;;;5108953;28;20288;-81
2023/07/26 12:19:00;;;;;;;4.13;2.55;;;;;;;;;;5109330;28;20214;-81
2023/07/26 12:21:28;;;;;;;4.85;2.00;;;;;;;;;;5092678;28;20223;-81
2023/07/26 12:23:56;;;;;;;3.72;2.00;;;;;;;;;;5090519;28;20651;-81
2023/07/26 12:26:26;;;;;;;4.97;1.80;;;;;;;;;;5102123;28;20225;-81
2023/07/26 12:28:54;;;;;;;4.03;1.63;;;;;;;;;;5110501;28;20236;-81
2023/07/26 12:31:22;;;;;;;3.97;1.70;;;;;;;;;;5107260;28;20195;-81
2023/07/26 12:33:58;;;;;;;6.03;2.20;;;;;;;;;;5094218;28;20250;-85
2023/07/26 12:36:28;;;;;;;2.97;1.90;;;;;;;;;;5111521;28;20225;-84
2023/07/26 12:38:55;;;;;;;2.33;1.65;;;;;;;;;;5114316;28;20204;-84
2023/07/26 12:41:23;;;;;;;5.03;1.85;;;;;;;;;;5114185;28;20640;-83
2023/07/26 12:43:54;;;;;;;5.40;1.80;;;;;;;;;;5111015;28;20241;-83
2023/07/26 12:46:22;;;;;;;3.70;1.65;;;;;;;;;;5094376;28;20203;-83
2023/07/26 12:48:49;;;;;;;3.40;1.63;;;;;;;;;;5093659;28;20655;-83
2023/07/26 12:51:16;;;;;;;2.97;1.40;;;;;;;;;;5094300;28;20194;-83
2023/07/26 12:53:44;;;;;;;4.68;1.50;;;;;;;;;;5096689;28;20229;-80
2023/07/26 12:56:11;;;;;;;3.50;1.30;;;;;;;;;;5109766;28;20615;-80
2023/07/26 12:58:38;;;;;;;3.05;1.30;;;;;;;;;;5113215;28;20665;-81
2023/07/26 13:01:07;;;;;;;3.28;1.27;;;;;;;;;;5113722;28;20233;-80
2023/07/26 13:03:34;;;;;;;1.70;1.25;;;;;;;;;;5113308;28;20202;-80
2023/07/26 13:06:04;;;;;;;3.17;1.20;;;;;;;;;;5105336;28;20218;-79
2023/07/26 13:08:31;;;;;;;1.92;1.20;;;;;;;;;;5110705;28;20222;-81
2023/07/26 13:10:58;;;;;;;2.20;1.08;;;;;;;;;;5113789;28;20194;-81
2023/07/26 13:13:26;;;;;;;1.48;0.90;;;;;;;;;;5111405;28;20217;-79
2023/07/26 13:15:53;;;;;;;1.50;0.85;;;;;;;;;;5111230;28;20224;-80
2023/07/26 13:18:22;;;;;;;2.47;0.90;;;;;;;;;;5112996;28;20255;-80
2023/07/26 13:20:49;;;;;;;1.85;0.85;;;;;;;;;;5113458;28;20281;-80
2023/07/26 13:23:16;;;;;;;1.25;0.77;;;;;;;;;;5113066;28;20251;-81
2023/07/26 13:25:44;;;;;;;1.95;0.80;;;;;;;;;;5113633;28;20216;-82
2023/07/26 13:28:11;;;;;;;1.25;0.70;;;;;;;;;;5110824;28;20202;-81
2023/07/26 13:30:38;;;;;;;3.10;0.80;;;;;;;;;;5107454;28;20226;-81
2023/07/26 13:33:06;;;;;;;1.73;0.90;;;;;;;;;;5109236;28;20233;-81
2023/07/26 13:35:34;;;;;;;1.83;0.80;;;;;;;;;;5113146;28;20281;-81
2023/07/26 13:38:02;;;;;;;2.08;0.70;;;;;;;;;;5113196;28;20309;-81
2023/07/26 13:40:29;;;;;;;2.03;0.65;;;;;;;;;;5112817;28;20723;-81
2023/07/26 13:42:56;;;;;;;0.50;0.40;;;;;;;;;;5098802;28;20622;-80
2023/07/26 13:45:23;;;;;;;0.85;0.50;;;;;;;;;;5097543;28;20737;-81
2023/07/26 13:47:50;;;;;;;1.42;0.70;;;;;;;;;;5112341;28;20681;-80
2023/07/26 13:50:17;;;;;;;1.25;0.80;;;;;;;;;;5112962;28;21728;-80
2023/07/26 13:52:46;;;;;;;0.80;0.70;;;;;;;;;;5111996;28;20309;-79
2023/07/26 13:55:13;;;;;;;1.80;0.70;;;;;;;;;;5113028;28;20252;-80
2023/07/26 13:57:40;;;;;;;2.08;0.70;;;;;;;;;;5112952;28;20837;-78
2023/07/26 14:00:08;;;;;;;1.95;0.70;;;;;;;;;;5112916;28;20650;-80
2023/07/26 14:02:36;;;;;;;1.42;0.80;;;;;;;;;;5112702;28;20667;-80
2023/07/26 14:05:03;;;;;;;2.08;0.80;;;;;;;;;;5113114;28;20281;-80
2023/07/26 14:07:30;;;;;;;1.10;0.70;;;;;;;;;;5112575;28;20601;-80
2023/07/26 14:09:59;;;;;;;1.48;1.02;;;;;;;;;;5112629;28;20257;-81
2023/07/26 14:12:26;;;;;;;1.58;1.08;;;;;;;;;;5112507;28;20202;-80
2023/07/26 14:14:53;;;;;;;1.55;0.90;;;;;;;;;;5112070;28;20697;-80
2023/07/26 14:17:21;;;;;;;1.55;0.98;;;;;;;;;;5100475;28;20233;-80
2023/07/26 14:19:48;;;;;;;1.90;0.80;;;;;;;;;;5091891;28;20198;-79
2023/07/26 14:22:15;;;;;;;1.23;1.00;;;;;;;;;;5091852;28;20202;-79
2023/07/26 14:24:42;;;;;;;2.78;1.10;;;;;;;;;;5098236;28;20233;-80
2023/07/26 14:27:11;;;;;;;1.77;1.17;;;;;;;;;;5112340;28;20288;-80
2023/07/26 14:29:38;;;;;;;1.60;1.10;;;;;;;;;;5112082;28;20289;-80
2023/07/26 14:32:06;;;;;;;2.55;1.20;;;;;;;;;;5111675;28;20189;-80
2023/07/26 14:34:33;;;;;;;1.48;1.13;;;;;;;;;;5111661;28;20309;-80
2023/07/26 14:37:00;;;;;;;1.30;1.15;;;;;;;;;;5112234;28;20301;-80
2023/07/26 14:39:28;;;;;;;1.58;1.00;;;;;;;;;;5098726;28;20195;-80
2023/07/26 14:41:55;;;;;;;2.75;1.10;;;;;;;;;;5095979;28;20281;-81